createdAt,value
2018-07-05T00:01:50.673Z,23.39
2018-07-05T00:04:31.539Z,23.39
2018-07-05T00:07:11.891Z,23.39
2018-07-05T00:09:52.503Z,23.40
2018-07-05T00:12:33.099Z,23.44
2018-07-05T00:15:13.405Z,23.40
2018-07-05T00:17:53.600Z,23.35
2018-07-05T00:20:34.011Z,23.35
2018-07-05T00:23:14.420Z,23.32
2018-07-05T00:25:55.111Z,23.39
2018-07-05T00:28:35.480Z,23.36
2018-07-05T00:31:15.736Z,23.33
2018-07-05T00:33:56.079Z,23.30
2018-07-05T00:36:36.317Z,23.30
2018-07-05T00:39:16.644Z,23.28
2018-07-05T00:41:56.907Z,23.25
2018-07-05T00:44:37.073Z,23.20
2018-07-05T00:47:17.296Z,23.21
2018-07-05T00:49:57.604Z,23.18
2018-07-05T00:52:37.892Z,23.15
2018-07-05T00:55:18.180Z,23.10
2018-07-05T00:57:58.508Z,23.09
2018-07-05T01:00:38.750Z,23.03
2018-07-05T01:03:19.217Z,23.03
2018-07-05T01:05:59.773Z,23.02
2018-07-05T01:08:40.043Z,23.04
2018-07-05T01:11:20.281Z,23.09
2018-07-05T01:14:00.496Z,23.06
2018-07-05T01:16:40.776Z,23.04
2018-07-05T01:19:21.156Z,23.05
2018-07-05T01:22:01.405Z,23.00
2018-07-05T01:24:41.611Z,22.96
2018-07-05T01:27:21.947Z,22.95
2018-07-05T01:30:02.287Z,22.95
2018-07-05T01:32:42.530Z,22.94
2018-07-05T01:35:22.875Z,23.02
2018-07-05T01:38:03.198Z,22.98
2018-07-05T01:40:43.453Z,22.93
2018-07-05T01:43:23.849Z,22.88
2018-07-05T01:46:04.064Z,22.84
2018-07-05T01:48:44.459Z,22.85
2018-07-05T01:51:24.866Z,22.85
2018-07-05T01:54:05.151Z,22.84
2018-07-05T01:56:45.446Z,22.75
2018-07-05T01:59:25.798Z,22.77
2018-07-05T02:02:06.263Z,22.76
2018-07-05T02:04:47.067Z,22.72
2018-07-05T02:07:27.621Z,22.67
2018-07-05T02:10:07.975Z,22.65
2018-07-05T02:12:48.283Z,22.58
2018-07-05T02:15:28.679Z,22.55
2018-07-05T02:18:08.903Z,22.51
2018-07-05T02:20:49.125Z,22.46
2018-07-05T02:23:29.680Z,22.44
2018-07-05T02:26:09.893Z,22.39
2018-07-05T02:28:50.266Z,22.39
2018-07-05T02:31:30.611Z,22.37
2018-07-05T02:34:11.938Z,22.36
2018-07-05T02:36:59.076Z,22.45
2018-07-05T02:39:49.063Z,22.40
2018-07-05T02:45:16.031Z,22.33
2018-07-05T02:47:56.411Z,22.31
2018-07-05T02:50:36.910Z,22.28
2018-07-05T02:53:17.408Z,22.22
2018-07-05T02:55:57.610Z,22.19
2018-07-05T02:58:38.014Z,22.13
2018-07-05T03:01:18.245Z,22.11
2018-07-05T03:03:58.497Z,22.08
2018-07-05T03:06:38.748Z,22.07
2018-07-05T03:09:18.884Z,22.09
2018-07-05T03:11:59.230Z,22.16
2018-07-05T03:14:39.483Z,22.13
2018-07-05T03:17:19.839Z,22.16
2018-07-05T03:19:59.910Z,22.14
2018-07-05T03:22:40.212Z,22.13
2018-07-05T03:25:20.544Z,22.15
2018-07-05T03:28:00.893Z,22.14
2018-07-05T03:30:41.337Z,22.16
2018-07-05T03:33:21.713Z,22.05
2018-07-05T03:36:01.898Z,22.06
2018-07-05T03:38:42.450Z,22.04
2018-07-05T03:41:22.690Z,22.07
2018-07-05T03:44:03.030Z,22.06
2018-07-05T03:46:43.449Z,22.04
2018-07-05T03:49:23.691Z,22.03
2018-07-05T03:52:04.028Z,22.01
2018-07-05T03:54:44.479Z,22.01
2018-07-05T03:57:24.845Z,22.03
2018-07-05T04:00:05.156Z,22.02
2018-07-05T04:02:45.561Z,22.00
2018-07-05T04:05:26.014Z,22.03
2018-07-05T04:08:06.303Z,21.98
2018-07-05T04:10:46.580Z,21.97
2018-07-05T04:13:26.759Z,21.89
2018-07-05T04:16:07.093Z,21.76
2018-07-05T04:18:47.291Z,21.70
2018-07-05T04:21:27.651Z,21.59
2018-07-05T04:24:08.040Z,21.54
2018-07-05T04:26:48.173Z,21.50
2018-07-05T04:29:28.603Z,21.49
2018-07-05T04:32:09.058Z,21.46
2018-07-05T04:34:57.087Z,21.44
2018-07-05T04:37:40.853Z,21.43
2018-07-05T04:40:21.172Z,21.37
2018-07-05T04:43:01.559Z,21.44
2018-07-05T04:45:42.057Z,21.44
2018-07-05T04:48:22.507Z,21.36
2018-07-05T04:51:02.840Z,21.35
2018-07-05T04:53:43.184Z,21.37
2018-07-05T04:56:23.507Z,21.42
2018-07-05T04:59:03.668Z,21.43
2018-07-05T05:01:44.071Z,21.37
2018-07-05T05:04:24.437Z,21.41
2018-07-05T05:07:04.783Z,21.31
2018-07-05T05:09:45.100Z,21.31
2018-07-05T05:12:25.426Z,21.43
2018-07-05T05:15:05.787Z,21.58
2018-07-05T05:17:46.245Z,21.67
2018-07-05T05:20:26.569Z,21.78
2018-07-05T05:23:06.965Z,21.93
2018-07-05T05:25:47.200Z,22.09
2018-07-05T05:28:27.522Z,22.14
2018-07-05T05:31:07.845Z,22.04
2018-07-05T05:33:48.139Z,21.93
2018-07-05T05:36:28.417Z,21.74
2018-07-05T05:39:08.754Z,21.64
2018-07-05T05:41:48.892Z,21.59
2018-07-05T05:44:29.262Z,21.58
2018-07-05T05:47:09.535Z,21.74
2018-07-05T05:49:50.178Z,21.80
2018-07-05T05:52:32.190Z,21.90
2018-07-05T05:55:13.286Z,21.95
2018-07-05T05:57:54.121Z,21.99
2018-07-05T06:00:34.578Z,22.05
2018-07-05T06:03:14.892Z,22.05
2018-07-05T06:05:55.391Z,22.14
2018-07-05T06:08:35.867Z,22.32
2018-07-05T06:11:16.329Z,22.58
2018-07-05T06:13:56.631Z,22.72
2018-07-05T06:16:36.911Z,22.81
2018-07-05T06:19:17.351Z,22.80
2018-07-05T06:21:58.631Z,22.92
2018-07-05T06:24:39.058Z,22.81
2018-07-05T06:27:19.418Z,22.81
2018-07-05T06:29:59.779Z,22.95
2018-07-05T06:32:40.067Z,23.01
2018-07-05T06:35:20.368Z,23.05
2018-07-05T06:38:00.771Z,23.07
2018-07-05T06:40:41.159Z,23.25
2018-07-05T06:43:21.384Z,23.26
2018-07-05T06:46:01.589Z,23.41
2018-07-05T06:48:41.968Z,23.39
2018-07-05T06:51:22.529Z,23.44
2018-07-05T06:54:02.837Z,23.41
2018-07-05T06:56:48.916Z,23.39
2018-07-05T06:59:31.812Z,23.38
2018-07-05T07:02:12.174Z,23.39
2018-07-05T07:04:52.535Z,23.37
2018-07-05T07:07:32.870Z,23.36
2018-07-05T07:10:13.194Z,23.38
2018-07-05T07:12:53.654Z,23.41
2018-07-05T07:15:34.103Z,23.42
2018-07-05T07:18:14.472Z,23.23
2018-07-05T07:20:54.895Z,23.24
2018-07-05T07:23:35.162Z,23.29
2018-07-05T07:26:15.530Z,23.40
2018-07-05T07:28:55.939Z,23.39
2018-07-05T07:31:36.305Z,23.53
2018-07-05T07:34:16.782Z,23.62
2018-07-05T07:36:57.152Z,23.68
2018-07-05T07:39:37.471Z,23.53
2018-07-05T07:42:05.398Z,23.42
2018-07-05T07:44:33.300Z,23.32
2018-07-05T07:47:01.230Z,23.26
2018-07-05T07:49:29.137Z,23.24
2018-07-05T07:51:57.074Z,23.32
2018-07-05T07:54:24.984Z,23.42
2018-07-05T07:56:52.930Z,23.30
2018-07-05T07:59:20.864Z,22.95
2018-07-05T08:01:48.812Z,22.92
2018-07-05T08:04:16.764Z,22.88
2018-07-05T08:06:44.728Z,23.02
2018-07-05T08:09:12.633Z,23.07
2018-07-05T08:11:40.555Z,23.15
2018-07-05T08:14:08.759Z,23.25
2018-07-05T08:16:36.696Z,23.36
2018-07-05T08:19:04.603Z,23.21
2018-07-05T08:21:32.554Z,23.24
2018-07-05T08:24:00.462Z,23.40
2018-07-05T08:26:28.389Z,23.55
2018-07-05T08:28:56.297Z,23.63
2018-07-05T08:31:24.274Z,23.69
2018-07-05T08:33:52.199Z,23.73
2018-07-05T08:36:20.124Z,23.84
2018-07-05T08:38:48.098Z,23.89
2018-07-05T08:41:16.046Z,23.98
2018-07-05T08:43:43.993Z,23.84
2018-07-05T08:46:11.914Z,23.86
2018-07-05T08:48:39.904Z,23.88
2018-07-05T08:51:07.834Z,23.90
2018-07-05T08:53:35.783Z,23.87
2018-07-05T08:56:03.737Z,23.81
2018-07-05T08:58:31.670Z,23.93
2018-07-05T09:00:59.580Z,24.02
2018-07-05T09:03:27.522Z,24.10
2018-07-05T09:05:55.460Z,24.28
2018-07-05T09:08:23.386Z,24.46
2018-07-05T09:10:51.326Z,24.49
2018-07-05T09:13:19.264Z,24.59
2018-07-05T09:15:47.214Z,24.64
2018-07-05T09:18:15.201Z,24.71
2018-07-05T09:20:43.243Z,24.70
2018-07-05T09:23:11.227Z,24.77
2018-07-05T09:25:39.135Z,24.79
2018-07-05T09:28:07.042Z,24.78
2018-07-05T09:30:35.003Z,24.84
2018-07-05T09:33:02.968Z,24.89
2018-07-05T09:35:30.877Z,24.90
2018-07-05T09:37:58.791Z,25.18
2018-07-05T09:40:26.738Z,25.18
2018-07-05T09:42:54.644Z,25.18
2018-07-05T09:45:22.681Z,25.29
2018-07-05T09:47:50.591Z,25.40
2018-07-05T09:50:18.549Z,25.48
2018-07-05T09:52:46.488Z,25.57
2018-07-05T09:55:14.422Z,25.60
2018-07-05T09:57:42.342Z,25.53
2018-07-05T10:00:11.970Z,25.69
2018-07-05T10:02:40.704Z,25.91
2018-07-05T10:05:08.648Z,25.89
2018-07-05T10:07:36.552Z,25.94
2018-07-05T10:10:04.498Z,25.98
2018-07-05T10:12:32.402Z,26.21
2018-07-05T10:15:00.328Z,26.14
2018-07-05T10:17:28.325Z,26.24
2018-07-05T10:19:56.298Z,26.25
2018-07-05T10:22:24.261Z,26.17
2018-07-05T10:24:52.198Z,26.18
2018-07-05T10:27:20.150Z,26.25
2018-07-05T10:30:00.449Z,26.30
2018-07-05T10:32:40.797Z,26.26
2018-07-05T10:35:08.744Z,26.21
2018-07-05T10:37:36.673Z,26.38
2018-07-05T10:40:16.978Z,26.59
2018-07-05T10:42:57.436Z,26.86
2018-07-05T10:45:37.631Z,26.99
2018-07-05T10:48:17.956Z,27.24
2018-07-05T10:50:58.213Z,27.26
2018-07-05T10:53:38.439Z,27.35
2018-07-05T10:56:18.783Z,27.29
2018-07-05T10:58:59.171Z,27.41
2018-07-05T11:01:39.598Z,27.50
2018-07-05T11:04:19.928Z,27.69
2018-07-05T11:07:00.246Z,27.62
2018-07-05T11:09:40.721Z,27.63
2018-07-05T11:12:21.126Z,27.58
2018-07-05T11:15:01.428Z,27.58
2018-07-05T11:17:41.518Z,27.59
2018-07-05T11:20:21.949Z,27.68
2018-07-05T11:23:02.270Z,27.51
2018-07-05T11:25:42.584Z,27.36
2018-07-05T11:28:22.982Z,27.31
2018-07-05T11:31:03.292Z,27.48
2018-07-05T11:33:43.848Z,27.56
2018-07-05T11:36:24.358Z,27.77
2018-07-05T11:39:05.836Z,27.73
2018-07-05T11:41:46.843Z,27.73
2018-07-05T11:44:27.322Z,27.63
2018-07-05T11:47:07.691Z,27.50
2018-07-05T11:49:48.016Z,27.55
2018-07-05T11:52:28.211Z,27.74
2018-07-05T11:55:08.342Z,28.11
2018-07-05T11:57:48.763Z,28.11
2018-07-05T12:00:29.085Z,28.03
2018-07-05T12:03:09.459Z,27.89
2018-07-05T12:05:49.890Z,28.25
2018-07-05T12:08:30.322Z,28.34
2018-07-05T12:11:10.556Z,28.44
2018-07-05T12:13:50.923Z,28.46
2018-07-05T12:16:31.118Z,28.30
2018-07-05T12:19:11.625Z,28.12
2018-07-05T12:21:52.115Z,28.27
2018-07-05T12:24:32.340Z,28.27
2018-07-05T12:27:12.591Z,28.16
2018-07-05T12:29:52.810Z,28.31
2018-07-05T12:32:33.100Z,28.28
2018-07-05T12:35:13.480Z,28.51
2018-07-05T12:37:53.781Z,28.39
2018-07-05T12:40:34.080Z,28.24
2018-07-05T12:43:14.508Z,28.42
2018-07-05T12:45:54.777Z,28.30
2018-07-05T12:48:34.966Z,27.99
2018-07-05T12:51:15.320Z,27.75
2018-07-05T12:53:55.656Z,27.64
2018-07-05T12:56:36.007Z,27.73
2018-07-05T12:59:16.249Z,27.82
2018-07-05T13:01:56.516Z,27.95
2018-07-05T13:04:36.901Z,27.90
2018-07-05T13:07:17.231Z,27.88
2018-07-05T13:09:57.583Z,27.92
2018-07-05T13:12:37.904Z,28.38
2018-07-05T13:15:18.186Z,28.66
2018-07-05T13:17:58.493Z,28.83
2018-07-05T13:20:38.683Z,29.03
2018-07-05T13:23:18.923Z,29.30
2018-07-05T13:25:59.305Z,29.64
2018-07-05T13:28:39.809Z,29.83
2018-07-05T13:31:20.158Z,30.02
2018-07-05T13:34:00.279Z,30.32
2018-07-05T13:36:40.431Z,30.28
2018-07-05T13:39:20.844Z,30.17
2018-07-05T13:42:01.000Z,30.31
2018-07-05T13:44:41.168Z,30.23
2018-07-05T13:47:21.353Z,29.98
2018-07-05T13:50:01.593Z,29.99
2018-07-05T13:52:41.831Z,29.79
2018-07-05T13:55:22.105Z,29.50
2018-07-05T13:58:02.261Z,29.43
2018-07-05T14:00:42.644Z,29.41
2018-07-05T14:03:22.725Z,29.63
2018-07-05T14:06:03.176Z,29.56
2018-07-05T14:08:43.310Z,29.84
2018-07-05T14:11:23.619Z,30.23
2018-07-05T14:14:03.840Z,30.03
2018-07-05T14:16:44.212Z,30.05
2018-07-05T14:19:24.545Z,30.38
2018-07-05T14:22:04.748Z,30.22
2018-07-05T14:24:45.053Z,30.63
2018-07-05T14:27:25.359Z,30.80
2018-07-05T14:30:05.582Z,30.75
2018-07-05T14:32:45.948Z,30.40
2018-07-05T14:35:26.390Z,30.34
2018-07-05T14:38:06.656Z,30.05
2018-07-05T14:40:47.142Z,30.80
2018-07-05T14:43:27.461Z,30.81
2018-07-05T14:46:07.724Z,30.83
2018-07-05T14:48:47.901Z,31.28
2018-07-05T14:51:28.302Z,31.44
2018-07-05T14:54:08.678Z,30.88
2018-07-05T14:56:48.829Z,30.79
2018-07-05T14:59:29.198Z,31.05
2018-07-05T15:02:09.608Z,31.75
2018-07-05T15:04:49.780Z,31.64
2018-07-05T15:07:29.958Z,31.37
2018-07-05T15:10:10.323Z,31.08
2018-07-05T15:12:50.605Z,30.70
2018-07-05T15:15:31.002Z,30.01
2018-07-05T15:18:11.340Z,29.91
2018-07-05T15:20:51.552Z,30.00
2018-07-05T15:23:31.948Z,29.94
2018-07-05T15:26:12.340Z,29.96
2018-07-05T15:28:52.735Z,30.01
2018-07-05T15:31:33.281Z,30.24
2018-07-05T15:34:13.386Z,30.30
2018-07-05T15:36:53.783Z,30.16
2018-07-05T15:39:33.918Z,30.45
2018-07-05T15:42:14.194Z,30.74
2018-07-05T15:44:54.239Z,30.45
2018-07-05T15:47:34.484Z,30.51
2018-07-05T15:50:14.780Z,30.56
2018-07-05T15:52:55.051Z,30.74
2018-07-05T15:55:35.439Z,31.02
2018-07-05T15:58:15.869Z,30.76
2018-07-05T16:00:56.138Z,29.99
2018-07-05T16:03:36.464Z,30.09
2018-07-05T16:06:16.869Z,30.03
2018-07-05T16:08:57.262Z,29.93
2018-07-05T16:11:37.466Z,29.95
2018-07-05T16:14:17.709Z,29.63
2018-07-05T16:16:58.078Z,29.67
2018-07-05T16:19:38.338Z,29.58
2018-07-05T16:22:18.588Z,29.31
2018-07-05T16:24:58.758Z,29.43
2018-07-05T16:27:38.946Z,29.30
2018-07-05T16:30:19.350Z,29.12
2018-07-05T16:32:59.760Z,29.07
2018-07-05T16:35:40.044Z,28.89
2018-07-05T16:38:20.367Z,28.78
2018-07-05T16:41:00.737Z,28.67
2018-07-05T16:43:41.149Z,28.45
2018-07-05T16:46:21.443Z,28.24
2018-07-05T16:49:01.782Z,28.24
2018-07-05T16:51:42.139Z,28.18
2018-07-05T16:54:22.543Z,28.31
2018-07-05T16:57:02.718Z,28.47
2018-07-05T16:59:42.941Z,28.69
2018-07-05T17:02:23.057Z,28.87
2018-07-05T17:05:03.522Z,28.79
2018-07-05T17:07:44.026Z,28.89
2018-07-05T17:10:24.223Z,28.79
2018-07-05T17:13:04.459Z,28.75
2018-07-05T17:15:44.878Z,28.75
2018-07-05T17:18:25.173Z,28.59
2018-07-05T17:21:05.433Z,28.49
2018-07-05T17:23:45.696Z,28.35
2018-07-05T17:26:26.164Z,28.21
2018-07-05T17:29:06.309Z,28.07
2018-07-05T17:31:46.881Z,28.11
2018-07-05T17:34:27.301Z,28.11
2018-07-05T17:37:07.533Z,28.10
2018-07-05T17:39:47.883Z,28.11
2018-07-05T17:42:28.209Z,27.93
2018-07-05T17:45:08.507Z,27.98
2018-07-05T17:47:48.944Z,27.99
2018-07-05T17:50:29.322Z,27.93
2018-07-05T17:53:09.624Z,27.93
2018-07-05T17:55:49.772Z,27.93
2018-07-05T17:58:30.103Z,27.90
2018-07-05T18:01:10.416Z,27.78
2018-07-05T18:03:50.610Z,27.65
2018-07-05T18:06:30.920Z,27.55
2018-07-05T18:09:11.232Z,27.41
2018-07-05T18:11:51.559Z,27.34
2018-07-05T18:14:31.774Z,27.18
2018-07-05T18:17:12.199Z,27.21
2018-07-05T18:19:52.574Z,27.19
2018-07-05T18:22:32.965Z,27.05
2018-07-05T18:25:13.184Z,26.93
2018-07-05T18:27:53.334Z,26.88
2018-07-05T18:30:33.534Z,26.89
2018-07-05T18:33:13.858Z,26.82
2018-07-05T18:35:54.204Z,26.80
2018-07-05T18:38:34.499Z,26.70
2018-07-05T18:41:14.762Z,26.74
2018-07-05T18:43:55.112Z,26.68
2018-07-05T18:46:35.464Z,26.66
2018-07-05T18:49:15.720Z,26.67
2018-07-05T18:51:55.879Z,26.64
2018-07-05T18:54:36.233Z,26.55
2018-07-05T18:57:16.393Z,26.55
2018-07-05T18:59:56.726Z,26.48
2018-07-05T19:02:37.141Z,26.37
2018-07-05T19:05:17.276Z,26.35
2018-07-05T19:07:57.336Z,26.24
2018-07-05T19:10:37.848Z,26.20
2018-07-05T19:13:18.209Z,26.14
2018-07-05T19:15:58.444Z,26.13
2018-07-05T19:18:38.673Z,26.09
2018-07-05T19:21:18.929Z,26.02
2018-07-05T19:23:59.477Z,26.01
2018-07-05T19:26:39.960Z,25.93
2018-07-05T19:29:20.284Z,25.90
2018-07-05T19:32:00.434Z,25.84
2018-07-05T19:34:40.890Z,25.80
2018-07-05T19:37:21.252Z,25.73
2018-07-05T19:40:01.445Z,25.74
2018-07-05T19:42:41.673Z,25.69
2018-07-05T19:45:21.967Z,25.66
2018-07-05T19:48:02.300Z,25.69
2018-07-05T19:50:42.572Z,25.61
2018-07-05T19:53:22.925Z,25.53
2018-07-05T19:56:03.307Z,25.50
2018-07-05T19:58:43.848Z,25.31
2018-07-05T20:01:24.313Z,25.35
2018-07-05T20:04:04.520Z,25.28
2018-07-05T20:06:45.243Z,25.11
2018-07-05T20:09:25.891Z,25.11
2018-07-05T20:12:07.312Z,25.02
2018-07-05T20:14:47.990Z,24.81
2018-07-05T20:17:28.376Z,24.69
2018-07-05T20:20:08.749Z,24.57
2018-07-05T20:22:49.209Z,24.57
2018-07-05T20:25:29.463Z,24.62
2018-07-05T20:28:10.000Z,24.66
2018-07-05T20:30:50.407Z,24.54
2018-07-05T20:33:30.751Z,24.53
2018-07-05T20:36:10.948Z,24.55
2018-07-05T20:38:51.328Z,24.38
2018-07-05T20:41:31.686Z,24.18
2018-07-05T20:44:12.019Z,24.12
2018-07-05T20:46:52.305Z,24.04
2018-07-05T20:49:32.749Z,23.95
2018-07-05T20:52:13.517Z,23.86
2018-07-05T20:54:54.007Z,23.80
2018-07-05T20:57:34.291Z,23.79
2018-07-05T21:00:14.508Z,23.68
2018-07-05T21:02:54.904Z,23.63
2018-07-05T21:05:35.215Z,23.56
2018-07-05T21:08:15.731Z,23.60
2018-07-05T21:10:56.265Z,23.52
2018-07-05T21:13:36.528Z,23.47
2018-07-05T21:16:16.968Z,23.47
2018-07-05T21:18:57.414Z,23.41
2018-07-05T21:21:37.655Z,23.31
2018-07-05T21:24:17.774Z,23.35
2018-07-05T21:26:58.173Z,23.27
2018-07-05T21:29:38.599Z,23.21
2018-07-05T21:32:18.941Z,23.12
2018-07-05T21:34:59.287Z,23.10
2018-07-05T21:37:39.596Z,23.11
2018-07-05T21:40:19.840Z,23.03
2018-07-05T21:43:00.181Z,22.97
2018-07-05T21:45:40.408Z,22.96
2018-07-05T21:48:20.752Z,22.99
2018-07-05T21:51:00.944Z,22.96
2018-07-05T21:53:41.269Z,22.94
2018-07-05T21:56:21.554Z,22.89
2018-07-05T21:59:01.770Z,22.80
2018-07-05T22:01:42.084Z,22.78
2018-07-05T22:04:22.282Z,22.75
2018-07-05T22:07:02.504Z,22.67
2018-07-05T22:09:42.861Z,22.65
2018-07-05T22:12:23.093Z,22.59
2018-07-05T22:15:03.226Z,22.62
2018-07-05T22:17:48.896Z,22.59
2018-07-05T22:20:34.783Z,22.54
2018-07-05T22:23:20.578Z,22.45
2018-07-05T22:26:06.386Z,22.34
2018-07-05T22:28:52.375Z,22.27
2018-07-05T22:31:33.848Z,22.20
2018-07-05T22:34:14.539Z,22.06
2018-07-05T22:36:54.955Z,22.06
2018-07-05T22:39:35.289Z,21.99
2018-07-05T22:42:15.513Z,21.99
2018-07-05T22:44:55.861Z,22.00
2018-07-05T22:47:36.180Z,22.00
2018-07-05T22:50:16.350Z,21.85
2018-07-05T22:52:56.789Z,21.78
2018-07-05T22:55:37.051Z,21.79
2018-07-05T22:58:17.363Z,21.74
2018-07-05T23:00:58.287Z,21.74
2018-07-05T23:03:38.942Z,21.66
2018-07-05T23:06:19.222Z,21.64
2018-07-05T23:08:59.606Z,21.61
2018-07-05T23:11:40.065Z,21.60
2018-07-05T23:14:20.476Z,21.58
2018-07-05T23:17:01.116Z,21.48
2018-07-05T23:19:42.148Z,21.48
2018-07-05T23:22:23.004Z,21.38
2018-07-05T23:25:03.352Z,21.33
2018-07-05T23:27:43.787Z,21.36
2018-07-05T23:30:24.068Z,21.33
2018-07-05T23:33:04.377Z,21.30
2018-07-05T23:35:44.773Z,21.25
2018-07-05T23:38:25.094Z,21.20
2018-07-05T23:41:05.289Z,21.16
2018-07-05T23:43:45.752Z,21.11
2018-07-05T23:46:26.123Z,21.12
2018-07-05T23:49:06.502Z,21.12
2018-07-05T23:51:46.913Z,21.15
2018-07-05T23:54:27.232Z,21.11
2018-07-05T23:57:07.608Z,21.10
2018-07-05T23:59:48.181Z,20.98
